sensor_id;sensor_type;location;lat;lon;timestamp;P1;durP1;ratioP1;P2;durP2;ratioP2
4422;SDS011;2224;49.814;8.650;2022-09-17T00:00:38;2.90;;;1.57;;
4422;SDS011;2224;49.814;8.650;2022-09-17T00:03:04;2.53;;;1.70;;
4422;SDS011;2224;49.814;8.650;2022-09-17T00:05:29;1.60;;;1.50;;
4422;SDS011;2224;49.814;8.650;2022-09-17T00:07:54;4.03;;;1.80;;
4422;SDS011;2224;49.814;8.650;2022-09-17T00:10:20;2.50;;;1.90;;
4422;SDS011;2224;49.814;8.650;2022-09-17T00:12:47;3.10;;;1.73;;
4422;SDS011;2224;49.814;8.650;2022-09-17T00:15:12;2.20;;;1.90;;
4422;SDS011;2224;49.814;8.650;2022-09-17T00:17:38;1.80;;;1.70;;
4422;SDS011;2224;49.814;8.650;2022-09-17T00:20:04;4.00;;;1.70;;
4422;SDS011;2224;49.814;8.650;2022-09-17T00:22:32;1.53;;;1.40;;
4422;SDS011;2224;49.814;8.650;2022-09-17T00:24:57;3.20;;;1.70;;
4422;SDS011;2224;49.814;8.650;2022-09-17T00:27:23;2.13;;;1.97;;
4422;SDS011;2224;49.814;8.650;2022-09-17T00:29:48;3.50;;;1.73;;
4422;SDS011;2224;49.814;8.650;2022-09-17T00:32:13;1.87;;;1.77;;
4422;SDS011;2224;49.814;8.650;2022-09-17T00:34:39;1.83;;;1.67;;
4422;SDS011;2224;49.814;8.650;2022-09-17T00:37:04;4.87;;;2.27;;
4422;SDS011;2224;49.814;8.650;2022-09-17T00:39:29;4.40;;;1.80;;
4422;SDS011;2224;49.814;8.650;2022-09-17T00:41:55;2.40;;;1.83;;
4422;SDS011;2224;49.814;8.650;2022-09-17T00:44:41;2.73;;;2.10;;
4422;SDS011;2224;49.814;8.650;2022-09-17T00:47:11;2.20;;;1.83;;
4422;SDS011;2224;49.814;8.650;2022-09-17T00:49:40;1.90;;;1.70;;
4422;SDS011;2224;49.814;8.650;2022-09-17T00:52:08;1.97;;;1.53;;
4422;SDS011;2224;49.814;8.650;2022-09-17T00:54:35;2.13;;;1.90;;
4422;SDS011;2224;49.814;8.650;2022-09-17T00:57:03;2.10;;;2.00;;
4422;SDS011;2224;49.814;8.650;2022-09-17T00:59:28;5.00;;;2.40;;
4422;SDS011;2224;49.814;8.650;2022-09-17T01:01:53;3.43;;;1.80;;
4422;SDS011;2224;49.814;8.650;2022-09-17T01:04:20;1.77;;;1.50;;
4422;SDS011;2224;49.814;8.650;2022-09-17T01:06:57;3.13;;;1.90;;
4422;SDS011;2224;49.814;8.650;2022-09-17T01:17:50;2.23;;;1.83;;
4422;SDS011;2224;49.814;8.650;2022-09-17T01:28:59;6.40;;;2.30;;
4422;SDS011;2224;49.814;8.650;2022-09-17T01:31:39;2.10;;;1.83;;
4422;SDS011;2224;49.814;8.650;2022-09-17T01:37:13;3.57;;;2.20;;
4422;SDS011;2224;49.814;8.650;2022-09-17T01:39:48;4.00;;;2.07;;
4422;SDS011;2224;49.814;8.650;2022-09-17T01:42:23;3.00;;;1.80;;
4422;SDS011;2224;49.814;8.650;2022-09-17T01:47:48;2.13;;;1.70;;
4422;SDS011;2224;49.814;8.650;2022-09-17T01:50:17;6.97;;;1.70;;
4422;SDS011;2224;49.814;8.650;2022-09-17T01:53:04;3.03;;;1.80;;
4422;SDS011;2224;49.814;8.650;2022-09-17T01:55:34;2.97;;;1.53;;
4422;SDS011;2224;49.814;8.650;2022-09-17T01:58:03;6.57;;;3.10;;
4422;SDS011;2224;49.814;8.650;2022-09-17T02:00:32;3.10;;;2.40;;
4422;SDS011;2224;49.814;8.650;2022-09-17T02:05:50;3.27;;;1.83;;
4422;SDS011;2224;49.814;8.650;2022-09-17T02:08:25;2.43;;;2.03;;
4422;SDS011;2224;49.814;8.650;2022-09-17T02:10:55;3.90;;;2.03;;
4422;SDS011;2224;49.814;8.650;2022-09-17T02:13:31;9.23;;;2.70;;
4422;SDS011;2224;49.814;8.650;2022-09-17T02:16:12;3.30;;;2.30;;
4422;SDS011;2224;49.814;8.650;2022-09-17T02:18:48;5.37;;;2.37;;
4422;SDS011;2224;49.814;8.650;2022-09-17T02:27:04;4.10;;;2.10;;
4422;SDS011;2224;49.814;8.650;2022-09-17T02:29:33;2.03;;;1.70;;
4422;SDS011;2224;49.814;8.650;2022-09-17T02:32:03;2.83;;;2.20;;
4422;SDS011;2224;49.814;8.650;2022-09-17T02:34:29;2.40;;;1.93;;
4422;SDS011;2224;49.814;8.650;2022-09-17T02:36:55;3.50;;;2.30;;
4422;SDS011;2224;49.814;8.650;2022-09-17T02:39:22;3.67;;;2.30;;
4422;SDS011;2224;49.814;8.650;2022-09-17T02:41:52;3.67;;;2.10;;
4422;SDS011;2224;49.814;8.650;2022-09-17T02:44:30;5.23;;;2.73;;
4422;SDS011;2224;49.814;8.650;2022-09-17T02:47:12;6.40;;;2.97;;
4422;SDS011;2224;49.814;8.650;2022-09-17T02:50:13;5.93;;;2.40;;
4422;SDS011;2224;49.814;8.650;2022-09-17T03:01:31;2.90;;;2.30;;
4422;SDS011;2224;49.814;8.650;2022-09-17T03:04:00;8.30;;;2.80;;
4422;SDS011;2224;49.814;8.650;2022-09-17T03:06:26;6.20;;;2.40;;
4422;SDS011;2224;49.814;8.650;2022-09-17T03:08:52;4.57;;;2.57;;
4422;SDS011;2224;49.814;8.650;2022-09-17T03:11:17;3.90;;;2.33;;
4422;SDS011;2224;49.814;8.650;2022-09-17T03:13:42;5.67;;;2.70;;
4422;SDS011;2224;49.814;8.650;2022-09-17T03:16:08;8.23;;;3.30;;
4422;SDS011;2224;49.814;8.650;2022-09-17T03:18:33;4.60;;;2.97;;
4422;SDS011;2224;49.814;8.650;2022-09-17T03:20:59;2.70;;;2.50;;
4422;SDS011;2224;49.814;8.650;2022-09-17T03:23:24;6.60;;;2.93;;
4422;SDS011;2224;49.814;8.650;2022-09-17T03:25:51;4.70;;;2.93;;
4422;SDS011;2224;49.814;8.650;2022-09-17T03:28:17;4.13;;;2.47;;
4422;SDS011;2224;49.814;8.650;2022-09-17T03:30:43;4.67;;;3.60;;
4422;SDS011;2224;49.814;8.650;2022-09-17T03:33:08;5.00;;;2.70;;
4422;SDS011;2224;49.814;8.650;2022-09-17T03:35:34;4.80;;;2.77;;
4422;SDS011;2224;49.814;8.650;2022-09-17T03:37:59;5.37;;;3.10;;
4422;SDS011;2224;49.814;8.650;2022-09-17T03:40:24;7.00;;;3.10;;
4422;SDS011;2224;49.814;8.650;2022-09-17T03:42:50;2.93;;;2.70;;
4422;SDS011;2224;49.814;8.650;2022-09-17T03:45:15;3.77;;;3.17;;
4422;SDS011;2224;49.814;8.650;2022-09-17T03:47:40;3.43;;;2.93;;
4422;SDS011;2224;49.814;8.650;2022-09-17T03:50:06;4.60;;;2.93;;
4422;SDS011;2224;49.814;8.650;2022-09-17T03:52:32;7.63;;;3.40;;
4422;SDS011;2224;49.814;8.650;2022-09-17T03:54:57;4.57;;;3.00;;
4422;SDS011;2224;49.814;8.650;2022-09-17T03:57:22;3.47;;;2.80;;
4422;SDS011;2224;49.814;8.650;2022-09-17T03:59:48;4.03;;;3.47;;
4422;SDS011;2224;49.814;8.650;2022-09-17T04:02:13;6.93;;;3.07;;
4422;SDS011;2224;49.814;8.650;2022-09-17T04:04:38;4.97;;;3.17;;
4422;SDS011;2224;49.814;8.650;2022-09-17T04:07:04;6.30;;;3.30;;
4422;SDS011;2224;49.814;8.650;2022-09-17T04:09:29;4.87;;;3.13;;
4422;SDS011;2224;49.814;8.650;2022-09-17T04:11:55;6.40;;;3.30;;
4422;SDS011;2224;49.814;8.650;2022-09-17T04:14:20;3.93;;;3.50;;
4422;SDS011;2224;49.814;8.650;2022-09-17T04:16:45;3.20;;;3.00;;
4422;SDS011;2224;49.814;8.650;2022-09-17T04:19:10;5.43;;;3.13;;
4422;SDS011;2224;49.814;8.650;2022-09-17T04:21:36;4.93;;;3.23;;
4422;SDS011;2224;49.814;8.650;2022-09-17T04:24:01;5.10;;;3.40;;
4422;SDS011;2224;49.814;8.650;2022-09-17T04:26:26;4.07;;;3.30;;
4422;SDS011;2224;49.814;8.650;2022-09-17T04:28:52;4.67;;;3.70;;
4422;SDS011;2224;49.814;8.650;2022-09-17T04:31:17;5.30;;;3.40;;
4422;SDS011;2224;49.814;8.650;2022-09-17T04:33:42;4.10;;;3.20;;
4422;SDS011;2224;49.814;8.650;2022-09-17T04:36:08;4.17;;;3.70;;
4422;SDS011;2224;49.814;8.650;2022-09-17T04:38:33;5.30;;;3.53;;
4422;SDS011;2224;49.814;8.650;2022-09-17T04:40:59;5.30;;;3.60;;
4422;SDS011;2224;49.814;8.650;2022-09-17T04:43:24;5.20;;;3.43;;
4422;SDS011;2224;49.814;8.650;2022-09-17T04:45:50;6.23;;;3.87;;
4422;SDS011;2224;49.814;8.650;2022-09-17T04:48:15;6.93;;;3.37;;
4422;SDS011;2224;49.814;8.650;2022-09-17T04:50:41;6.77;;;3.50;;
4422;SDS011;2224;49.814;8.650;2022-09-17T04:53:06;4.43;;;3.50;;
4422;SDS011;2224;49.814;8.650;2022-09-17T04:55:32;8.63;;;4.90;;
4422;SDS011;2224;49.814;8.650;2022-09-17T04:57:57;5.00;;;4.33;;
4422;SDS011;2224;49.814;8.650;2022-09-17T05:00:22;7.43;;;4.57;;
4422;SDS011;2224;49.814;8.650;2022-09-17T05:02:49;10.20;;;3.83;;
4422;SDS011;2224;49.814;8.650;2022-09-17T05:05:15;6.07;;;3.97;;
4422;SDS011;2224;49.814;8.650;2022-09-17T05:07:42;11.77;;;3.93;;
4422;SDS011;2224;49.814;8.650;2022-09-17T05:10:08;7.40;;;4.63;;
4422;SDS011;2224;49.814;8.650;2022-09-17T05:12:34;4.10;;;3.60;;
4422;SDS011;2224;49.814;8.650;2022-09-17T05:14:59;4.43;;;3.30;;
4422;SDS011;2224;49.814;8.650;2022-09-17T05:17:25;6.40;;;3.80;;
4422;SDS011;2224;49.814;8.650;2022-09-17T05:19:50;6.23;;;5.10;;
4422;SDS011;2224;49.814;8.650;2022-09-17T05:22:17;4.83;;;4.13;;
4422;SDS011;2224;49.814;8.650;2022-09-17T05:24:43;6.27;;;3.80;;
4422;SDS011;2224;49.814;8.650;2022-09-17T05:27:08;5.30;;;3.80;;
4422;SDS011;2224;49.814;8.650;2022-09-17T05:29:33;6.33;;;4.53;;
4422;SDS011;2224;49.814;8.650;2022-09-17T05:31:59;8.07;;;4.97;;
4422;SDS011;2224;49.814;8.650;2022-09-17T05:34:24;6.43;;;4.00;;
4422;SDS011;2224;49.814;8.650;2022-09-17T05:36:49;9.43;;;4.30;;
4422;SDS011;2224;49.814;8.650;2022-09-17T05:39:15;9.17;;;4.90;;
4422;SDS011;2224;49.814;8.650;2022-09-17T05:41:40;5.30;;;4.77;;
4422;SDS011;2224;49.814;8.650;2022-09-17T05:44:05;6.40;;;4.20;;
4422;SDS011;2224;49.814;8.650;2022-09-17T05:46:31;6.47;;;4.63;;
4422;SDS011;2224;49.814;8.650;2022-09-17T05:48:56;7.17;;;4.80;;
4422;SDS011;2224;49.814;8.650;2022-09-17T05:51:22;9.13;;;4.37;;
4422;SDS011;2224;49.814;8.650;2022-09-17T05:53:47;6.40;;;4.30;;
4422;SDS011;2224;49.814;8.650;2022-09-17T05:56:12;6.80;;;5.03;;
4422;SDS011;2224;49.814;8.650;2022-09-17T05:58:38;8.77;;;4.57;;
4422;SDS011;2224;49.814;8.650;2022-09-17T06:01:03;4.10;;;3.77;;
4422;SDS011;2224;49.814;8.650;2022-09-17T06:03:29;7.17;;;4.50;;
4422;SDS011;2224;49.814;8.650;2022-09-17T06:05:55;5.23;;;4.50;;
4422;SDS011;2224;49.814;8.650;2022-09-17T06:08:25;5.13;;;3.60;;
4422;SDS011;2224;49.814;8.650;2022-09-17T06:10:52;4.30;;;3.90;;
4422;SDS011;2224;49.814;8.650;2022-09-17T06:13:18;11.10;;;4.83;;
4422;SDS011;2224;49.814;8.650;2022-09-17T06:15:50;9.27;;;3.87;;
4422;SDS011;2224;49.814;8.650;2022-09-17T06:18:16;7.37;;;3.40;;
4422;SDS011;2224;49.814;8.650;2022-09-17T06:20:42;5.33;;;3.60;;
4422;SDS011;2224;49.814;8.650;2022-09-17T06:23:07;4.37;;;3.97;;
4422;SDS011;2224;49.814;8.650;2022-09-17T06:25:32;5.10;;;4.07;;
4422;SDS011;2224;49.814;8.650;2022-09-17T06:28:00;4.10;;;3.67;;
4422;SDS011;2224;49.814;8.650;2022-09-17T06:30:26;5.53;;;4.17;;
4422;SDS011;2224;49.814;8.650;2022-09-17T06:32:52;5.23;;;3.40;;
4422;SDS011;2224;49.814;8.650;2022-09-17T06:35:17;5.07;;;3.77;;
4422;SDS011;2224;49.814;8.650;2022-09-17T06:37:42;7.20;;;4.20;;
4422;SDS011;2224;49.814;8.650;2022-09-17T06:40:08;5.47;;;3.33;;
4422;SDS011;2224;49.814;8.650;2022-09-17T06:42:33;7.83;;;4.57;;
4422;SDS011;2224;49.814;8.650;2022-09-17T06:44:59;4.27;;;3.83;;
4422;SDS011;2224;49.814;8.650;2022-09-17T06:47:24;4.57;;;3.70;;
4422;SDS011;2224;49.814;8.650;2022-09-17T06:49:49;11.33;;;4.23;;
4422;SDS011;2224;49.814;8.650;2022-09-17T06:52:15;5.10;;;3.23;;
4422;SDS011;2224;49.814;8.650;2022-09-17T06:54:40;7.23;;;4.03;;
4422;SDS011;2224;49.814;8.650;2022-09-17T06:57:06;4.10;;;3.30;;
4422;SDS011;2224;49.814;8.650;2022-09-17T06:59:31;5.53;;;3.17;;
4422;SDS011;2224;49.814;8.650;2022-09-17T07:01:57;8.83;;;3.83;;
4422;SDS011;2224;49.814;8.650;2022-09-17T07:04:22;6.90;;;3.60;;
4422;SDS011;2224;49.814;8.650;2022-09-17T07:06:47;6.80;;;3.23;;
4422;SDS011;2224;49.814;8.650;2022-09-17T07:09:13;6.07;;;3.47;;
4422;SDS011;2224;49.814;8.650;2022-09-17T07:11:38;7.57;;;4.10;;
4422;SDS011;2224;49.814;8.650;2022-09-17T07:14:04;7.40;;;3.83;;
4422;SDS011;2224;49.814;8.650;2022-09-17T07:16:30;5.37;;;3.03;;
4422;SDS011;2224;49.814;8.650;2022-09-17T07:19:03;4.33;;;3.60;;
4422;SDS011;2224;49.814;8.650;2022-09-17T07:21:29;8.80;;;3.70;;
4422;SDS011;2224;49.814;8.650;2022-09-17T07:23:54;8.63;;;4.57;;
4422;SDS011;2224;49.814;8.650;2022-09-17T07:26:20;5.40;;;3.73;;
4422;SDS011;2224;49.814;8.650;2022-09-17T07:28:45;5.80;;;2.90;;
4422;SDS011;2224;49.814;8.650;2022-09-17T07:31:11;8.37;;;4.93;;
4422;SDS011;2224;49.814;8.650;2022-09-17T07:33:36;5.20;;;2.90;;
4422;SDS011;2224;49.814;8.650;2022-09-17T07:36:03;9.57;;;3.20;;
4422;SDS011;2224;49.814;8.650;2022-09-17T07:38:30;5.90;;;3.90;;
4422;SDS011;2224;49.814;8.650;2022-09-17T07:40:56;5.27;;;3.33;;
4422;SDS011;2224;49.814;8.650;2022-09-17T07:43:30;4.20;;;3.20;;
4422;SDS011;2224;49.814;8.650;2022-09-17T07:45:57;8.23;;;3.83;;
4422;SDS011;2224;49.814;8.650;2022-09-17T07:48:23;10.73;;;3.40;;
4422;SDS011;2224;49.814;8.650;2022-09-17T07:50:49;5.77;;;3.33;;
4422;SDS011;2224;49.814;8.650;2022-09-17T07:53:15;8.83;;;3.73;;
4422;SDS011;2224;49.814;8.650;2022-09-17T07:55:40;11.37;;;4.50;;
4422;SDS011;2224;49.814;8.650;2022-09-17T07:58:06;6.53;;;3.60;;
4422;SDS011;2224;49.814;8.650;2022-09-17T08:00:32;7.90;;;3.27;;
4422;SDS011;2224;49.814;8.650;2022-09-17T08:02:58;8.40;;;3.50;;
4422;SDS011;2224;49.814;8.650;2022-09-17T08:05:24;10.90;;;3.70;;
4422;SDS011;2224;49.814;8.650;2022-09-17T08:07:53;9.40;;;3.87;;
4422;SDS011;2224;49.814;8.650;2022-09-17T08:10:19;5.20;;;3.40;;
4422;SDS011;2224;49.814;8.650;2022-09-17T08:12:52;8.20;;;3.30;;
4422;SDS011;2224;49.814;8.650;2022-09-17T08:15:19;8.23;;;4.30;;
4422;SDS011;2224;49.814;8.650;2022-09-17T08:17:44;11.20;;;3.50;;
4422;SDS011;2224;49.814;8.650;2022-09-17T08:20:10;6.87;;;4.37;;
4422;SDS011;2224;49.814;8.650;2022-09-17T08:22:36;5.13;;;3.30;;
4422;SDS011;2224;49.814;8.650;2022-09-17T08:25:02;9.40;;;3.73;;
4422;SDS011;2224;49.814;8.650;2022-09-17T08:27:29;10.10;;;4.17;;
4422;SDS011;2224;49.814;8.650;2022-09-17T08:29:55;7.50;;;3.60;;
4422;SDS011;2224;49.814;8.650;2022-09-17T08:32:20;5.87;;;3.97;;
4422;SDS011;2224;49.814;8.650;2022-09-17T08:34:46;8.77;;;3.60;;
4422;SDS011;2224;49.814;8.650;2022-09-17T08:37:11;5.47;;;3.43;;
4422;SDS011;2224;49.814;8.650;2022-09-17T08:39:36;11.47;;;3.20;;
4422;SDS011;2224;49.814;8.650;2022-09-17T08:44:32;11.10;;;4.07;;
4422;SDS011;2224;49.814;8.650;2022-09-17T08:49:51;12.07;;;3.50;;
4422;SDS011;2224;49.814;8.650;2022-09-17T08:55:23;5.33;;;2.57;;
4422;SDS011;2224;49.814;8.650;2022-09-17T08:58:06;7.23;;;2.53;;
4422;SDS011;2224;49.814;8.650;2022-09-17T09:03:37;4.50;;;2.97;;
4422;SDS011;2224;49.814;8.650;2022-09-17T09:06:07;6.43;;;2.80;;
4422;SDS011;2224;49.814;8.650;2022-09-17T09:08:35;4.83;;;2.90;;
4422;SDS011;2224;49.814;8.650;2022-09-17T09:11:04;5.63;;;2.90;;
4422;SDS011;2224;49.814;8.650;2022-09-17T09:13:37;7.73;;;2.87;;
4422;SDS011;2224;49.814;8.650;2022-09-17T09:16:05;5.90;;;3.10;;
4422;SDS011;2224;49.814;8.650;2022-09-17T09:18:37;6.37;;;3.40;;
4422;SDS011;2224;49.814;8.650;2022-09-17T09:21:22;6.13;;;2.80;;
4422;SDS011;2224;49.814;8.650;2022-09-17T09:24:09;7.73;;;2.60;;
4422;SDS011;2224;49.814;8.650;2022-09-17T09:34:44;6.97;;;2.63;;
4422;SDS011;2224;49.814;8.650;2022-09-17T09:39:47;5.93;;;2.77;;
4422;SDS011;2224;49.814;8.650;2022-09-17T09:44:55;7.00;;;2.80;;
4422;SDS011;2224;49.814;8.650;2022-09-17T09:55:35;7.80;;;2.43;;
4422;SDS011;2224;49.814;8.650;2022-09-17T10:01:12;5.07;;;2.30;;
4422;SDS011;2224;49.814;8.650;2022-09-17T10:03:39;6.43;;;2.70;;
4422;SDS011;2224;49.814;8.650;2022-09-17T10:06:09;3.17;;;2.00;;
4422;SDS011;2224;49.814;8.650;2022-09-17T10:08:39;7.17;;;2.40;;
4422;SDS011;2224;49.814;8.650;2022-09-17T10:13:37;4.50;;;2.20;;
4422;SDS011;2224;49.814;8.650;2022-09-17T10:16:23;8.30;;;2.47;;
4422;SDS011;2224;49.814;8.650;2022-09-17T10:24:00;6.50;;;1.90;;
4422;SDS011;2224;49.814;8.650;2022-09-17T10:26:33;4.30;;;2.00;;
4422;SDS011;2224;49.814;8.650;2022-09-17T10:29:04;3.50;;;1.60;;
4422;SDS011;2224;49.814;8.650;2022-09-17T10:34:26;3.87;;;1.67;;
4422;SDS011;2224;49.814;8.650;2022-09-17T10:36:53;2.00;;;1.50;;
4422;SDS011;2224;49.814;8.650;2022-09-17T10:44:33;3.00;;;2.67;;
4422;SDS011;2224;49.814;8.650;2022-09-17T10:47:00;3.93;;;1.80;;
4422;SDS011;2224;49.814;8.650;2022-09-17T10:49:36;6.20;;;1.83;;
4422;SDS011;2224;49.814;8.650;2022-09-17T10:52:58;2.43;;;1.90;;
4422;SDS011;2224;49.814;8.650;2022-09-17T10:55:11;6.00;;;1.97;;
4422;SDS011;2224;49.814;8.650;2022-09-17T10:57:45;3.80;;;1.57;;
4422;SDS011;2224;49.814;8.650;2022-09-17T11:14:16;2.80;;;2.00;;
4422;SDS011;2224;49.814;8.650;2022-09-17T11:20:00;6.40;;;1.90;;
4422;SDS011;2224;49.814;8.650;2022-09-17T11:30:55;3.97;;;2.30;;
4422;SDS011;2224;49.814;8.650;2022-09-17T11:36:45;4.30;;;1.80;;
4422;SDS011;2224;49.814;8.650;2022-09-17T11:39:18;4.00;;;1.50;;
4422;SDS011;2224;49.814;8.650;2022-09-17T11:41:48;5.73;;;2.60;;
4422;SDS011;2224;49.814;8.650;2022-09-17T11:44:16;3.90;;;1.57;;
4422;SDS011;2224;49.814;8.650;2022-09-17T11:46:46;6.33;;;2.17;;
4422;SDS011;2224;49.814;8.650;2022-09-17T11:52:06;5.23;;;1.97;;
4422;SDS011;2224;49.814;8.650;2022-09-17T11:54:39;4.43;;;1.57;;
4422;SDS011;2224;49.814;8.650;2022-09-17T11:59:43;8.10;;;3.40;;
4422;SDS011;2224;49.814;8.650;2022-09-17T12:02:16;6.50;;;2.93;;
4422;SDS011;2224;49.814;8.650;2022-09-17T12:04:57;4.13;;;1.83;;
4422;SDS011;2224;49.814;8.650;2022-09-17T12:12:51;8.90;;;4.47;;
4422;SDS011;2224;49.814;8.650;2022-09-17T12:15:23;7.53;;;2.17;;
4422;SDS011;2224;49.814;8.650;2022-09-17T12:20:37;6.97;;;2.23;;
4422;SDS011;2224;49.814;8.650;2022-09-17T12:23:05;4.27;;;1.90;;
4422;SDS011;2224;49.814;8.650;2022-09-17T12:25:42;4.70;;;1.77;;
4422;SDS011;2224;49.814;8.650;2022-09-17T12:28:15;2.73;;;1.80;;
4422;SDS011;2224;49.814;8.650;2022-09-17T12:30:57;10.17;;;1.53;;
4422;SDS011;2224;49.814;8.650;2022-09-17T12:33:39;6.73;;;1.27;;
4422;SDS011;2224;49.814;8.650;2022-09-17T12:38:54;3.20;;;1.30;;
4422;SDS011;2224;49.814;8.650;2022-09-17T12:41:30;4.87;;;1.40;;
4422;SDS011;2224;49.814;8.650;2022-09-17T12:58:00;4.77;;;1.13;;
4422;SDS011;2224;49.814;8.650;2022-09-17T13:00:37;1.60;;;0.70;;
4422;SDS011;2224;49.814;8.650;2022-09-17T13:05:57;1.53;;;0.97;;
4422;SDS011;2224;49.814;8.650;2022-09-17T13:22:44;4.33;;;2.33;;
4422;SDS011;2224;49.814;8.650;2022-09-17T13:25:11;3.80;;;1.57;;
4422;SDS011;2224;49.814;8.650;2022-09-17T13:27:38;4.63;;;1.60;;
4422;SDS011;2224;49.814;8.650;2022-09-17T13:30:05;4.00;;;1.60;;
4422;SDS011;2224;49.814;8.650;2022-09-17T13:35:44;3.70;;;1.67;;
4422;SDS011;2224;49.814;8.650;2022-09-17T13:40:20;2.60;;;1.10;;
4422;SDS011;2224;49.814;8.650;2022-09-17T13:42:51;2.70;;;1.10;;
4422;SDS011;2224;49.814;8.650;2022-09-17T13:45:22;3.80;;;0.90;;
4422;SDS011;2224;49.814;8.650;2022-09-17T13:50:27;3.30;;;1.30;;
4422;SDS011;2224;49.814;8.650;2022-09-17T13:52:56;7.57;;;3.13;;
4422;SDS011;2224;49.814;8.650;2022-09-17T13:55:36;4.07;;;1.63;;
4422;SDS011;2224;49.814;8.650;2022-09-17T13:58:04;4.03;;;1.90;;
4422;SDS011;2224;49.814;8.650;2022-09-17T14:05:53;2.83;;;1.80;;
4422;SDS011;2224;49.814;8.650;2022-09-17T14:08:23;3.27;;;2.47;;
4422;SDS011;2224;49.814;8.650;2022-09-17T14:10:52;2.40;;;1.60;;
4422;SDS011;2224;49.814;8.650;2022-09-17T14:13:23;4.60;;;1.67;;
4422;SDS011;2224;49.814;8.650;2022-09-17T14:16:20;3.60;;;1.50;;
4422;SDS011;2224;49.814;8.650;2022-09-17T14:18:54;4.20;;;2.07;;
4422;SDS011;2224;49.814;8.650;2022-09-17T14:24:38;4.33;;;2.03;;
4422;SDS011;2224;49.814;8.650;2022-09-17T14:27:11;1.37;;;0.80;;
4422;SDS011;2224;49.814;8.650;2022-09-17T14:35:25;1.83;;;0.90;;
4422;SDS011;2224;49.814;8.650;2022-09-17T14:38:01;2.50;;;0.60;;
4422;SDS011;2224;49.814;8.650;2022-09-17T14:40:30;1.27;;;0.90;;
4422;SDS011;2224;49.814;8.650;2022-09-17T14:42:58;1.70;;;0.80;;
4422;SDS011;2224;49.814;8.650;2022-09-17T14:45:34;3.00;;;0.97;;
4422;SDS011;2224;49.814;8.650;2022-09-17T14:50:52;3.27;;;1.17;;
4422;SDS011;2224;49.814;8.650;2022-09-17T14:53:25;2.10;;;0.90;;
4422;SDS011;2224;49.814;8.650;2022-09-17T14:55:50;2.10;;;1.00;;
4422;SDS011;2224;49.814;8.650;2022-09-17T14:58:29;1.27;;;1.10;;
4422;SDS011;2224;49.814;8.650;2022-09-17T15:01:00;0.80;;;0.57;;
4422;SDS011;2224;49.814;8.650;2022-09-17T15:03:26;1.50;;;1.13;;
4422;SDS011;2224;49.814;8.650;2022-09-17T15:05:51;1.37;;;1.10;;
4422;SDS011;2224;49.814;8.650;2022-09-17T15:08:18;1.60;;;0.80;;
4422;SDS011;2224;49.814;8.650;2022-09-17T15:13:24;1.23;;;0.73;;
4422;SDS011;2224;49.814;8.650;2022-09-17T15:16:02;2.37;;;0.80;;
4422;SDS011;2224;49.814;8.650;2022-09-17T15:18:52;1.70;;;0.80;;
4422;SDS011;2224;49.814;8.650;2022-09-17T15:21:33;1.00;;;0.60;;
4422;SDS011;2224;49.814;8.650;2022-09-17T15:24:12;1.43;;;0.70;;
4422;SDS011;2224;49.814;8.650;2022-09-17T15:26:46;1.30;;;0.70;;
4422;SDS011;2224;49.814;8.650;2022-09-17T15:29:14;4.10;;;0.83;;
4422;SDS011;2224;49.814;8.650;2022-09-17T15:31:40;2.20;;;0.80;;
4422;SDS011;2224;49.814;8.650;2022-09-17T15:34:05;1.60;;;1.00;;
4422;SDS011;2224;49.814;8.650;2022-09-17T15:36:35;1.37;;;0.80;;
4422;SDS011;2224;49.814;8.650;2022-09-17T15:39:04;1.10;;;0.87;;
4422;SDS011;2224;49.814;8.650;2022-09-17T15:42:04;1.00;;;0.87;;
4422;SDS011;2224;49.814;8.650;2022-09-17T15:44:30;1.70;;;1.03;;
4422;SDS011;2224;49.814;8.650;2022-09-17T15:47:20;1.80;;;1.00;;
4422;SDS011;2224;49.814;8.650;2022-09-17T15:50:05;1.27;;;0.70;;
4422;SDS011;2224;49.814;8.650;2022-09-17T15:52:41;1.67;;;0.80;;
4422;SDS011;2224;49.814;8.650;2022-09-17T15:55:29;2.20;;;1.10;;
4422;SDS011;2224;49.814;8.650;2022-09-17T15:57:58;3.80;;;1.20;;
4422;SDS011;2224;49.814;8.650;2022-09-17T16:00:24;1.50;;;1.03;;
4422;SDS011;2224;49.814;8.650;2022-09-17T16:02:50;2.60;;;1.20;;
4422;SDS011;2224;49.814;8.650;2022-09-17T16:07:41;2.20;;;1.13;;
4422;SDS011;2224;49.814;8.650;2022-09-17T16:10:07;1.77;;;1.30;;
4422;SDS011;2224;49.814;8.650;2022-09-17T16:12:33;2.40;;;1.30;;
4422;SDS011;2224;49.814;8.650;2022-09-17T16:14:59;2.50;;;1.30;;
4422;SDS011;2224;49.814;8.650;2022-09-17T16:22:39;2.60;;;1.33;;
4422;SDS011;2224;49.814;8.650;2022-09-17T16:25:05;2.93;;;1.40;;
4422;SDS011;2224;49.814;8.650;2022-09-17T16:27:31;2.03;;;1.13;;
4422;SDS011;2224;49.814;8.650;2022-09-17T16:30:07;3.53;;;1.40;;
4422;SDS011;2224;49.814;8.650;2022-09-17T16:32:37;2.90;;;1.30;;
4422;SDS011;2224;49.814;8.650;2022-09-17T16:35:02;2.60;;;1.13;;
4422;SDS011;2224;49.814;8.650;2022-09-17T16:37:29;2.47;;;1.27;;
4422;SDS011;2224;49.814;8.650;2022-09-17T16:39:54;3.63;;;1.13;;
4422;SDS011;2224;49.814;8.650;2022-09-17T16:42:19;1.30;;;0.90;;
4422;SDS011;2224;49.814;8.650;2022-09-17T16:44:45;4.10;;;1.47;;
4422;SDS011;2224;49.814;8.650;2022-09-17T16:47:10;2.53;;;1.20;;
4422;SDS011;2224;49.814;8.650;2022-09-17T16:49:35;4.50;;;1.33;;
4422;SDS011;2224;49.814;8.650;2022-09-17T16:52:00;2.20;;;1.30;;
4422;SDS011;2224;49.814;8.650;2022-09-17T16:54:26;2.30;;;1.40;;
4422;SDS011;2224;49.814;8.650;2022-09-17T16:56:51;1.20;;;0.90;;
4422;SDS011;2224;49.814;8.650;2022-09-17T16:59:17;1.20;;;0.93;;
4422;SDS011;2224;49.814;8.650;2022-09-17T17:01:42;1.20;;;1.10;;
4422;SDS011;2224;49.814;8.650;2022-09-17T17:04:08;2.63;;;1.17;;
4422;SDS011;2224;49.814;8.650;2022-09-17T17:06:33;5.00;;;1.37;;
4422;SDS011;2224;49.814;8.650;2022-09-17T17:08:58;2.97;;;1.80;;
4422;SDS011;2224;49.814;8.650;2022-09-17T17:11:25;3.70;;;2.10;;
4422;SDS011;2224;49.814;8.650;2022-09-17T17:13:51;2.80;;;1.33;;
4422;SDS011;2224;49.814;8.650;2022-09-17T17:16:17;1.27;;;1.10;;
4422;SDS011;2224;49.814;8.650;2022-09-17T17:18:43;2.37;;;1.10;;
4422;SDS011;2224;49.814;8.650;2022-09-17T17:21:09;2.60;;;1.33;;
4422;SDS011;2224;49.814;8.650;2022-09-17T17:23:35;2.40;;;1.43;;
4422;SDS011;2224;49.814;8.650;2022-09-17T17:26:01;5.20;;;1.33;;
4422;SDS011;2224;49.814;8.650;2022-09-17T17:28:29;2.00;;;1.20;;
4422;SDS011;2224;49.814;8.650;2022-09-17T17:30:55;3.70;;;1.40;;
4422;SDS011;2224;49.814;8.650;2022-09-17T17:33:20;2.70;;;1.00;;
4422;SDS011;2224;49.814;8.650;2022-09-17T17:35:46;6.83;;;1.30;;
4422;SDS011;2224;49.814;8.650;2022-09-17T17:38:11;2.00;;;1.10;;
4422;SDS011;2224;49.814;8.650;2022-09-17T17:40:36;1.90;;;1.67;;
4422;SDS011;2224;49.814;8.650;2022-09-17T17:43:02;5.43;;;2.60;;
4422;SDS011;2224;49.814;8.650;2022-09-17T17:45:27;2.20;;;1.40;;
4422;SDS011;2224;49.814;8.650;2022-09-17T17:47:52;4.50;;;1.73;;
4422;SDS011;2224;49.814;8.650;2022-09-17T17:50:18;3.97;;;2.07;;
4422;SDS011;2224;49.814;8.650;2022-09-17T17:52:43;2.90;;;1.80;;
4422;SDS011;2224;49.814;8.650;2022-09-17T17:55:11;8.53;;;4.47;;
4422;SDS011;2224;49.814;8.650;2022-09-17T17:57:37;3.23;;;2.60;;
4422;SDS011;2224;49.814;8.650;2022-09-17T18:00:03;2.57;;;1.40;;
4422;SDS011;2224;49.814;8.650;2022-09-17T18:02:28;4.97;;;2.50;;
4422;SDS011;2224;49.814;8.650;2022-09-17T18:04:53;3.37;;;1.70;;
4422;SDS011;2224;49.814;8.650;2022-09-17T18:07:19;3.27;;;2.23;;
4422;SDS011;2224;49.814;8.650;2022-09-17T18:09:44;1.13;;;1.00;;
4422;SDS011;2224;49.814;8.650;2022-09-17T18:12:10;2.23;;;1.37;;
4422;SDS011;2224;49.814;8.650;2022-09-17T18:14:35;2.63;;;1.60;;
4422;SDS011;2224;49.814;8.650;2022-09-17T18:17:01;1.70;;;1.53;;
4422;SDS011;2224;49.814;8.650;2022-09-17T18:19:26;2.30;;;1.23;;
4422;SDS011;2224;49.814;8.650;2022-09-17T18:21:52;1.30;;;1.20;;
4422;SDS011;2224;49.814;8.650;2022-09-17T18:24:18;1.27;;;1.10;;
4422;SDS011;2224;49.814;8.650;2022-09-17T18:26:43;2.10;;;1.10;;
4422;SDS011;2224;49.814;8.650;2022-09-17T18:29:09;0.90;;;0.90;;
4422;SDS011;2224;49.814;8.650;2022-09-17T18:31:35;1.53;;;1.43;;
4422;SDS011;2224;49.814;8.650;2022-09-17T18:34:02;2.07;;;1.70;;
4422;SDS011;2224;49.814;8.650;2022-09-17T18:36:29;2.20;;;1.90;;
4422;SDS011;2224;49.814;8.650;2022-09-17T18:38:56;2.40;;;1.83;;
4422;SDS011;2224;49.814;8.650;2022-09-17T18:41:29;2.53;;;1.70;;
4422;SDS011;2224;49.814;8.650;2022-09-17T18:43:56;3.93;;;2.00;;
4422;SDS011;2224;49.814;8.650;2022-09-17T18:46:22;3.33;;;1.20;;